TimeCDT,TemperatureF,Dew PointF,Humidity,Sea Level PressureIn,VisibilityMPH,Wind Direction,Wind SpeedMPH,Gust SpeedMPH,PrecipitationIn,Events,Conditions,WindDirDegrees,DateUTC
12:08 AM,51.8,51.8,100,29.95,1.5,East,8.1,-,N/A,,Overcast,100,2012-10-23 05:08:00
12:54 AM,52.0,51.1,97,29.95,2.0,East,10.4,-,N/A,,Overcast,100,2012-10-23 05:54:00
1:37 AM,51.8,51.8,100,29.93,3.0,East,9.2,-,N/A,,Overcast,100,2012-10-23 06:37:00
1:54 AM,52.0,51.1,97,29.94,3.0,East,11.5,-,N/A,,Overcast,90,2012-10-23 06:54:00
2:27 AM,51.8,51.8,100,29.91,3.0,East,11.5,-,N/A,,Overcast,100,2012-10-23 07:27:00
2:54 AM,52.0,50.0,93,29.91,4.0,East,10.4,-,N/A,,Overcast,90,2012-10-23 07:54:00
3:34 AM,51.8,50.0,94,29.90,6.0,ESE,6.9,-,N/A,,Overcast,110,2012-10-23 08:34:00
3:54 AM,52.0,50.0,93,29.91,6.0,ESE,9.2,-,N/A,,Overcast,110,2012-10-23 08:54:00
4:34 AM,51.8,48.2,88,29.91,7.0,ESE,6.9,-,N/A,,Mostly Cloudy,120,2012-10-23 09:34:00
4:54 AM,50.0,48.0,93,29.90,7.0,East,10.4,-,N/A,,Clear,100,2012-10-23 09:54:00
5:54 AM,50.0,48.0,93,29.92,10.0,ESE,9.2,-,N/A,,Overcast,110,2012-10-23 10:54:00
6:45 AM,50.0,48.2,94,29.90,10.0,ESE,9.2,-,N/A,,Overcast,120,2012-10-23 11:45:00
7:54 AM,48.9,48.0,97,29.91,5.0,East,11.5,-,N/A,,Overcast,100,2012-10-23 12:54:00
8:20 AM,48.2,48.2,100,29.90,1.5,East,10.4,-,N/A,,Overcast,100,2012-10-23 13:20:00
8:35 AM,48.2,48.2,100,29.91,1.0,ESE,11.5,-,N/A,,Overcast,120,2012-10-23 13:35:00
8:54 AM,48.9,48.0,97,29.91,1.0,ESE,9.2,-,N/A,,Overcast,110,2012-10-23 13:54:00
9:03 AM,48.2,48.2,100,29.90,1.2,SE,12.7,-,N/A,,Overcast,130,2012-10-23 14:03:00
9:29 AM,48.2,48.2,100,29.89,2.0,SE,11.5,-,N/A,,Overcast,130,2012-10-23 14:29:00
9:43 AM,48.2,48.2,100,29.89,1.8,SE,10.4,-,N/A,,Overcast,140,2012-10-23 14:43:00
9:54 AM,48.9,48.9,100,29.90,1.5,ESE,10.4,-,N/A,,Overcast,120,2012-10-23 14:54:00
10:54 AM,50.0,50.0,100,29.90,1.2,SE,9.2,-,N/A,,Overcast,130,2012-10-23 15:54:00
11:38 AM,51.8,51.8,100,29.88,2.0,ESE,9.2,-,N/A,,Overcast,110,2012-10-23 16:38:00
11:54 AM,52.0,51.1,97,29.90,2.0,SE,11.5,-,N/A,,Overcast,130,2012-10-23 16:54:00
12:05 PM,53.6,51.8,94,29.88,1.5,SE,8.1,-,N/A,,Overcast,140,2012-10-23 17:05:00
12:20 PM,53.6,51.8,94,29.88,1.0,SE,8.1,-,N/A,,Overcast,140,2012-10-23 17:20:00
12:39 PM,53.6,51.8,94,29.87,1.2,SE,9.2,-,N/A,,Overcast,140,2012-10-23 17:39:00
12:54 PM,53.1,53.1,100,29.88,1.5,SE,9.2,-,N/A,,Overcast,130,2012-10-23 17:54:00
1:54 PM,54.0,53.1,97,29.84,1.8,SE,11.5,-,N/A,,Overcast,130,2012-10-23 18:54:00
2:10 PM,55.4,53.6,94,29.83,2.0,SE,8.1,-,N/A,,Overcast,140,2012-10-23 19:10:00
2:29 PM,55.4,53.6,94,29.82,3.0,SE,9.2,-,N/A,,Overcast,140,2012-10-23 19:29:00
2:50 PM,55.4,55.4,100,29.81,2.0,SE,10.4,-,N/A,,Overcast,130,2012-10-23 19:50:00
2:54 PM,55.9,55.0,97,29.82,2.0,SE,9.2,-,N/A,,Overcast,130,2012-10-23 19:54:00
3:16 PM,55.4,55.4,100,29.81,3.0,SE,9.2,-,N/A,,Overcast,140,2012-10-23 20:16:00
3:54 PM,57.0,55.0,93,29.83,3.0,SE,6.9,-,N/A,,Overcast,130,2012-10-23 20:54:00
4:15 PM,57.2,55.4,94,29.81,2.0,ESE,8.1,-,N/A,,Overcast,120,2012-10-23 21:15:00
4:23 PM,57.2,55.4,94,29.81,1.5,ESE,8.1,-,N/A,,Overcast,120,2012-10-23 21:23:00
4:37 PM,55.4,55.4,100,29.81,1.0,ESE,6.9,-,N/A,,Overcast,120,2012-10-23 21:37:00
4:54 PM,55.9,55.9,100,29.83,1.0,ESE,6.9,-,N/A,,Overcast,120,2012-10-23 21:54:00
5:11 PM,55.4,55.4,100,29.81,0.8,ESE,6.9,-,N/A,,Overcast,120,2012-10-23 22:11:00
5:54 PM,55.9,55.9,100,29.84,0.5,ESE,9.2,-,N/A,Fog,Fog,120,2012-10-23 22:54:00
6:54 PM,57.0,57.0,100,29.85,0.5,ESE,10.4,-,N/A,Fog,Fog,120,2012-10-23 23:54:00
7:54 PM,57.0,57.0,100,29.85,0.5,SE,9.2,-,N/A,Fog,Fog,140,2012-10-24 00:54:00
8:54 PM,57.9,57.9,100,29.85,0.8,SE,10.4,-,N/A,,Overcast,140,2012-10-24 01:54:00
9:05 PM,59.0,59.0,100,29.83,1.0,SSE,10.4,-,N/A,,Overcast,150,2012-10-24 02:05:00
9:54 PM,59.0,59.0,100,29.86,1.0,SSE,8.1,-,N/A,,Overcast,150,2012-10-24 02:54:00
10:04 PM,59.0,59.0,100,29.85,1.2,SSE,9.2,-,N/A,,Overcast,150,2012-10-24 03:04:00
10:51 PM,60.8,60.8,100,29.83,2.0,SE,12.7,-,0.00,Rain,Light Rain,140,2012-10-24 03:51:00
10:54 PM,60.1,60.1,100,29.84,2.0,SE,12.7,-,0.00,Rain,Light Rain,140,2012-10-24 03:54:00
11:54 PM,60.1,60.1,100,29.85,2.0,South,8.1,-,0.00,,Overcast,170,2012-10-24 04:54:00